ADDS TAF Board (Experimental) INFO Settings
IDs: Format: Expanded Condensed

KDCA - Washington/National, VA, US

Issued at 1124 UTC 03 May 2016
Updated at: 1235 UTC 03 May 2016
Time1152Z 03/13Z 03/14Z 03/15Z 03/16Z 03/17Z 03/18Z 03/19Z 03/20Z 03/21Z 03/22Z 03/23Z 04/00Z 04/01Z
Type OBS PRVL PRVL PRVL PRVL PRVL PRVL PRVL PRVL PRVL PRVL PRVL PRVL PRVL
VIS 7 3 3 3 3 5 >6 >6 >6 >6 >6 >6 >6 >6
CIG 9 8 8 8 8 15 15 15 15 15 15 15 15 15
Cover OVC OVC OVC OVC OVC OVC OVC OVC OVC OVC OVC OVC OVC OVC
FltCat IFR IFR IFR IFR IFR MVFR MVFR MVFR MVFR MVFR MVFR MVFR MVFR MVFR
WX -- -SHRA BR -SHRA BR -SHRA BR -SHRA BR -SHRA -- -- -- -- -- -- -- --
WDir VRB 360 360 360 360 360 VRB VRB VRB VRB VRB VRB VRB VRB
WSpd 0 5 5 5 5 5 4 4 4 4 4 4 4 4
WGst -- -- -- -- -- -- -- -- -- -- -- -- -- --
R01/19
XWnd VRB -0 -0 -0 -0 -0 VRB VRB VRB VRB VRB VRB VRB VRB
HWnd VRB 5 5 5 5 5 VRB VRB VRB VRB VRB VRB VRB VRB
R04/22
XWnd VRB 2 2 2 2 2 VRB VRB VRB VRB VRB VRB VRB VRB
HWnd VRB 4 4 4 4 4 VRB VRB VRB VRB VRB VRB VRB VRB
R15/33
XWnd VRB 3 3 3 3 3 VRB VRB VRB VRB VRB VRB VRB VRB
HWnd VRB -4 -4 -4 -4 -4 VRB VRB VRB VRB VRB VRB VRB VRB

NOTE: TEMPO conditions in [brackets]. Keep in mind TEMPO conditions might be better (lower impact) than prevailing conditions.

Raw TAF
KDCA 031124Z 0312/0412 36005KT 3SM -SHRA BR BKN008 OVC015
  FM031700 36005KT 5SM -SHRA OVC015
  FM031800 VRB04KT P6SM OVC015
  FM040500 05004KT 6SM BR OVC008


Raw METAR
KDCA 031152Z 00000KT 7SM BKN009 OVC015 17/17 A2980 RMK AO2 RAB10E29 SLP089 P0000 60003 70116 T01720167 10172 20167 53002
KDCA 031052Z 17003KT 3SM BR BKN008 OVC013 17/17 A2979 RMK AO2 RAB19E47 SLP088 P0001 T01670167
KDCA 030952Z 00000KT 4SM BR BKN009 OVC013 17/17 A2979 RMK AO2 RAE07DZB18E20 SLP087 P0000 T01720167 $
KDCA 030950Z 00000KT 4SM BR BKN009 OVC013 17/17 A2979 RMK AO2 RAE07DZB18E20 CIG 007V011 P0000 $

METAR Board
Radar Display
Forecast Discussion

TAF Board Legend

Potential Impact
Threat None Slight Moderate High
Visibility (sm) ≥5.1 5.1>X≥3 3>X≥1 <1
Ceiling (100 ft) ≥30.1 30.1>X≥10 10>X≥5 <5
Wind Speed (kt) <10 10≤X<20 20≤X<30 ≥30
Wind Gust (kt) <15 15≤X<25 25≤X<35 ≥35
Weather No Wx Reported VCTS,-TS,-FZRA,SN TS,FZRA +TS,+FZRA,+SN